createdAt,value
2018-11-02T00:00:37.929Z,14.40
2018-11-02T00:01:42.465Z,14.40
2018-11-02T00:02:47.006Z,14.50
2018-11-02T00:03:51.565Z,14.40
2018-11-02T00:04:56.145Z,14.40
2018-11-02T00:06:16.481Z,14.40
2018-11-02T00:07:36.251Z,14.30
2018-11-02T00:08:56.818Z,14.40
2018-11-02T00:10:01.399Z,14.40
2018-11-02T00:11:05.872Z,14.30
2018-11-02T00:12:10.555Z,14.40
2018-11-02T00:13:15.020Z,14.40
2018-11-02T00:14:19.524Z,14.40
2018-11-02T00:15:24.109Z,14.40
2018-11-02T00:16:28.595Z,14.30
2018-11-02T00:17:33.097Z,14.30
2018-11-02T00:18:37.632Z,14.40
2018-11-02T00:19:42.690Z,14.40
2018-11-02T00:20:47.293Z,14.40
2018-11-02T00:21:51.811Z,14.30
2018-11-02T00:22:56.332Z,14.30
2018-11-02T00:24:00.887Z,14.30
2018-11-02T00:25:05.533Z,14.30
2018-11-02T00:26:10.000Z,14.30
2018-11-02T00:27:14.486Z,14.30
2018-11-02T00:28:18.979Z,14.30
2018-11-02T00:29:23.522Z,14.30
2018-11-02T00:30:28.038Z,14.30
2018-11-02T00:31:32.960Z,14.30
2018-11-02T00:32:37.517Z,14.30
2018-11-02T00:33:42.115Z,14.40
2018-11-02T00:34:46.676Z,14.40
2018-11-02T00:35:51.123Z,14.30
2018-11-02T00:36:55.696Z,14.40
2018-11-02T00:38:00.924Z,14.30
2018-11-02T00:39:06.641Z,14.30
2018-11-02T00:40:11.192Z,14.40
2018-11-02T00:41:15.635Z,14.40
2018-11-02T00:42:20.172Z,14.40
2018-11-02T00:43:24.717Z,14.40
2018-11-02T00:44:29.383Z,14.40
2018-11-02T00:45:33.941Z,14.40
2018-11-02T00:46:38.900Z,14.40
2018-11-02T00:47:43.365Z,14.40
2018-11-02T00:48:47.829Z,14.40
2018-11-02T00:49:52.395Z,14.40
2018-11-02T00:50:56.997Z,14.30
2018-11-02T00:52:01.489Z,14.30
2018-11-02T00:53:06.694Z,14.30
2018-11-02T00:54:11.212Z,14.30
2018-11-02T00:55:15.691Z,14.30
2018-11-02T00:56:20.176Z,14.30
2018-11-02T00:57:24.947Z,14.20
2018-11-02T00:58:29.450Z,14.20
2018-11-02T00:59:33.918Z,14.30
2018-11-02T01:00:38.388Z,14.20
2018-11-02T01:01:42.976Z,14.20
2018-11-02T01:02:47.444Z,14.20
2018-11-02T01:03:51.906Z,14.20
2018-11-02T01:04:56.373Z,14.10
2018-11-02T01:06:00.848Z,14.10
2018-11-02T01:07:06.009Z,14.00
2018-11-02T01:08:10.492Z,14.00
2018-11-02T01:09:15.124Z,14.00
2018-11-02T01:10:20.776Z,14.00
2018-11-02T01:11:25.405Z,14.00
2018-11-02T01:12:29.954Z,14.00
2018-11-02T01:13:34.504Z,14.00
2018-11-02T01:14:38.968Z,14.00
2018-11-02T01:15:43.437Z,14.00
2018-11-02T01:16:47.996Z,14.10
2018-11-02T01:17:52.501Z,14.00
2018-11-02T01:18:56.973Z,14.10
2018-11-02T01:20:01.430Z,14.10
2018-11-02T01:21:05.941Z,14.10
2018-11-02T01:22:10.541Z,14.10
2018-11-02T01:23:15.088Z,14.10
2018-11-02T01:24:19.558Z,14.10
2018-11-02T01:25:24.117Z,14.00
2018-11-02T01:26:28.785Z,14.00
2018-11-02T01:27:33.348Z,14.10
2018-11-02T01:28:37.874Z,14.10
2018-11-02T01:29:42.441Z,14.00
2018-11-02T01:30:47.022Z,14.10
2018-11-02T01:31:51.736Z,14.10
2018-11-02T01:32:56.275Z,14.00
2018-11-02T01:34:00.842Z,14.10
2018-11-02T01:35:06.305Z,14.10
2018-11-02T01:36:11.144Z,14.10
2018-11-02T01:37:15.696Z,14.00
2018-11-02T01:38:20.163Z,14.00
2018-11-02T01:39:24.763Z,14.00
2018-11-02T01:40:29.280Z,14.00
2018-11-02T01:41:33.792Z,13.90
2018-11-02T01:42:38.280Z,13.90
2018-11-02T01:43:42.752Z,13.90
2018-11-02T01:44:47.302Z,13.90
2018-11-02T01:45:52.441Z,13.90
2018-11-02T01:46:56.982Z,13.90
2018-11-02T01:48:01.458Z,13.80
2018-11-02T01:49:06.493Z,13.80
2018-11-02T01:50:11.049Z,13.70
2018-11-02T01:51:15.619Z,13.70
2018-11-02T01:52:20.154Z,13.60
2018-11-02T01:53:24.778Z,13.60
2018-11-02T01:54:29.306Z,13.60
2018-11-02T01:55:33.854Z,13.50
2018-11-02T01:56:38.397Z,13.50
2018-11-02T01:57:42.946Z,13.50
2018-11-02T01:58:47.512Z,13.50
2018-11-02T01:59:52.052Z,13.50
2018-11-02T02:00:56.603Z,13.40
2018-11-02T02:02:01.170Z,13.50
2018-11-02T02:03:05.851Z,13.50
2018-11-02T02:04:10.376Z,13.40
2018-11-02T02:05:14.832Z,13.40
2018-11-02T02:06:19.381Z,13.30
2018-11-02T02:07:23.851Z,13.40
2018-11-02T02:08:28.434Z,13.40
2018-11-02T02:09:33.005Z,13.30
2018-11-02T02:10:37.545Z,13.30
2018-11-02T02:11:42.101Z,13.30
2018-11-02T02:12:46.635Z,13.30
2018-11-02T02:13:51.220Z,13.20
2018-11-02T02:14:55.744Z,13.20
2018-11-02T02:16:00.481Z,13.20
2018-11-02T02:17:05.059Z,13.20
2018-11-02T02:18:09.508Z,13.20
2018-11-02T02:19:14.051Z,13.20
2018-11-02T02:20:18.566Z,13.20
2018-11-02T02:21:23.086Z,13.20
2018-11-02T02:22:27.642Z,13.20
2018-11-02T02:23:32.206Z,13.10
2018-11-02T02:24:36.749Z,13.10
2018-11-02T02:25:41.269Z,13.10
2018-11-02T02:26:45.787Z,13.00
2018-11-02T02:27:50.412Z,13.00
2018-11-02T02:28:54.946Z,13.00
2018-11-02T02:29:59.398Z,12.90
2018-11-02T02:31:03.931Z,12.90
2018-11-02T02:32:08.636Z,12.90
2018-11-02T02:33:13.178Z,12.90
2018-11-02T02:34:17.739Z,12.90
2018-11-02T02:35:22.238Z,12.90
2018-11-02T02:36:26.768Z,12.80
2018-11-02T02:37:31.309Z,12.80
2018-11-02T02:38:35.861Z,12.80
2018-11-02T02:39:40.439Z,12.80
2018-11-02T02:40:44.969Z,12.80
2018-11-02T02:41:49.494Z,12.80
2018-11-02T02:42:54.090Z,12.80
2018-11-02T02:43:58.620Z,12.80
2018-11-02T02:45:03.213Z,12.80
2018-11-02T02:46:07.790Z,12.80
2018-11-02T02:47:12.301Z,12.80
2018-11-02T02:48:16.862Z,12.70
2018-11-02T02:49:21.396Z,12.70
2018-11-02T02:50:25.923Z,12.70
2018-11-02T02:51:30.387Z,12.70
2018-11-02T02:52:34.827Z,12.70
2018-11-02T02:53:39.288Z,12.70
2018-11-02T02:54:43.797Z,12.70
2018-11-02T02:55:48.381Z,12.70
2018-11-02T02:56:52.898Z,12.70
2018-11-02T02:57:57.449Z,12.60
2018-11-02T02:59:02.006Z,12.60
2018-11-02T03:00:08.247Z,12.60
2018-11-02T03:01:12.847Z,12.60
2018-11-02T03:02:17.418Z,12.60
2018-11-02T03:03:21.941Z,12.60
2018-11-02T03:04:26.731Z,12.60
2018-11-02T03:05:31.285Z,12.60
2018-11-02T03:06:35.818Z,12.50
2018-11-02T03:07:40.964Z,12.60
2018-11-02T03:08:45.509Z,12.60
2018-11-02T03:09:49.974Z,12.50
2018-11-02T03:10:54.603Z,12.60
2018-11-02T03:11:59.101Z,12.60
2018-11-02T03:13:03.565Z,12.50
2018-11-02T03:14:08.146Z,12.50
2018-11-02T03:15:12.920Z,12.50
2018-11-02T03:16:17.434Z,12.50
2018-11-02T03:17:21.987Z,12.50
2018-11-02T03:18:26.597Z,12.50
2018-11-02T03:19:31.394Z,12.50
2018-11-02T03:20:35.843Z,12.50
2018-11-02T03:21:40.441Z,12.50
2018-11-02T03:22:45.151Z,12.40
2018-11-02T03:23:49.546Z,12.40
2018-11-02T03:24:54.002Z,12.40
2018-11-02T03:25:58.472Z,12.40
2018-11-02T03:27:03.033Z,12.40
2018-11-02T03:28:07.593Z,12.40
2018-11-02T03:29:12.306Z,12.40
2018-11-02T03:30:16.824Z,12.40
2018-11-02T03:31:21.394Z,12.30
2018-11-02T03:32:25.923Z,12.30
2018-11-02T03:33:30.533Z,12.30
2018-11-02T03:34:34.990Z,12.30
2018-11-02T03:35:39.582Z,12.30
2018-11-02T03:36:44.097Z,12.30
2018-11-02T03:37:48.619Z,12.30
2018-11-02T03:38:53.186Z,12.30
2018-11-02T03:39:57.721Z,12.30
2018-11-02T03:41:02.347Z,12.30
2018-11-02T03:42:07.453Z,12.20
2018-11-02T03:43:12.001Z,12.20
2018-11-02T03:44:16.560Z,12.20
2018-11-02T03:45:21.079Z,12.20
2018-11-02T03:46:25.627Z,12.20
2018-11-02T03:47:30.204Z,12.20
2018-11-02T03:48:34.744Z,12.20
2018-11-02T03:49:39.681Z,12.20
2018-11-02T03:50:44.254Z,12.10
2018-11-02T03:51:48.791Z,12.10
2018-11-02T03:52:53.757Z,12.10
2018-11-02T03:53:58.837Z,12.10
2018-11-02T03:55:03.853Z,12.10
2018-11-02T03:56:08.732Z,12.10
2018-11-02T03:57:13.256Z,12.10
2018-11-02T03:58:17.826Z,12.10
2018-11-02T03:59:22.400Z,12.10
2018-11-02T04:00:27.575Z,12.10
2018-11-02T04:01:32.119Z,12.00
2018-11-02T04:02:36.709Z,12.00
2018-11-02T04:03:41.485Z,12.00
2018-11-02T04:04:46.081Z,12.00
2018-11-02T04:05:50.597Z,12.00
2018-11-02T04:06:55.149Z,12.00
2018-11-02T04:07:59.699Z,11.90
2018-11-02T04:09:04.658Z,11.90
2018-11-02T04:10:10.420Z,11.90
2018-11-02T04:11:15.080Z,12.00
2018-11-02T04:12:19.591Z,11.90
2018-11-02T04:13:24.140Z,11.90
2018-11-02T04:14:28.653Z,11.90
2018-11-02T04:15:33.232Z,11.90
2018-11-02T04:16:37.789Z,11.90
2018-11-02T04:17:42.347Z,11.90
2018-11-02T04:18:46.869Z,11.80
2018-11-02T04:19:51.351Z,11.80
2018-11-02T04:20:55.869Z,11.80
2018-11-02T04:22:00.413Z,11.80
2018-11-02T04:23:04.965Z,11.80
2018-11-02T04:24:09.486Z,11.80
2018-11-02T04:25:13.961Z,11.70
2018-11-02T04:26:18.530Z,11.70
2018-11-02T04:27:23.081Z,11.70
2018-11-02T04:28:27.664Z,11.70
2018-11-02T04:29:32.208Z,11.70
2018-11-02T04:30:36.736Z,11.70
2018-11-02T04:31:41.702Z,11.70
2018-11-02T04:32:46.302Z,11.70
2018-11-02T04:33:50.790Z,11.70
2018-11-02T04:34:55.425Z,11.70
2018-11-02T04:35:59.970Z,11.70
2018-11-02T04:37:04.569Z,11.70
2018-11-02T04:38:09.130Z,11.70
2018-11-02T04:39:14.706Z,11.70
2018-11-02T04:40:19.218Z,11.60
2018-11-02T04:41:23.772Z,11.70
2018-11-02T04:42:28.303Z,11.70
2018-11-02T04:43:32.833Z,11.70
2018-11-02T04:44:37.377Z,11.70
2018-11-02T04:45:41.959Z,11.60
2018-11-02T04:46:46.519Z,11.70
2018-11-02T04:47:50.969Z,11.60
2018-11-02T04:48:55.505Z,11.60
2018-11-02T04:49:59.993Z,11.60
2018-11-02T04:51:04.597Z,11.60
2018-11-02T04:52:08.982Z,11.70
2018-11-02T04:53:13.446Z,11.60
2018-11-02T04:54:17.990Z,11.70
2018-11-02T04:55:22.461Z,11.70
2018-11-02T04:56:26.946Z,11.70
2018-11-02T04:57:31.455Z,11.70
2018-11-02T04:58:35.919Z,11.70
2018-11-02T04:59:40.471Z,11.70
2018-11-02T05:00:45.018Z,11.70
2018-11-02T05:01:49.546Z,11.70
2018-11-02T05:02:54.165Z,11.70
2018-11-02T05:03:58.702Z,11.70
2018-11-02T05:05:03.233Z,11.70
2018-11-02T05:06:07.796Z,11.60
2018-11-02T05:07:12.384Z,11.70
2018-11-02T05:08:16.890Z,11.70
2018-11-02T05:09:21.492Z,11.70
2018-11-02T05:10:25.940Z,11.70
2018-11-02T05:11:30.618Z,11.70
2018-11-02T05:12:35.097Z,11.70
2018-11-02T05:13:39.689Z,11.80
2018-11-02T05:14:44.269Z,11.80
2018-11-02T05:15:48.836Z,11.70
2018-11-02T05:16:53.375Z,11.70
2018-11-02T05:17:57.935Z,11.70
2018-11-02T05:19:02.468Z,11.70
2018-11-02T05:20:08.424Z,11.70
2018-11-02T05:21:13.033Z,11.70
2018-11-02T05:22:17.494Z,11.70
2018-11-02T05:23:22.094Z,11.70
2018-11-02T05:24:26.652Z,11.80
2018-11-02T05:25:31.202Z,11.80
2018-11-02T05:26:35.752Z,11.80
2018-11-02T05:27:40.361Z,11.80
2018-11-02T05:28:44.886Z,11.80
2018-11-02T05:29:49.448Z,11.80
2018-11-02T05:30:54.089Z,11.80
2018-11-02T05:31:58.615Z,11.80
2018-11-02T05:33:03.139Z,11.90
2018-11-02T05:34:08.058Z,11.90
2018-11-02T05:35:12.645Z,11.90
2018-11-02T05:36:17.223Z,11.90
2018-11-02T05:37:21.837Z,11.80
2018-11-02T05:38:26.355Z,11.80
2018-11-02T05:39:30.975Z,11.80
2018-11-02T05:40:35.904Z,11.90
2018-11-02T05:41:40.377Z,11.90
2018-11-02T05:42:44.927Z,11.90
2018-11-02T05:43:49.391Z,11.90
2018-11-02T05:44:53.833Z,11.80
2018-11-02T05:45:58.364Z,11.90
2018-11-02T05:47:02.891Z,11.90
2018-11-02T05:48:07.477Z,11.90
2018-11-02T05:49:11.996Z,11.90
2018-11-02T05:50:16.522Z,11.90
2018-11-02T05:51:21.101Z,11.90
2018-11-02T05:52:25.662Z,11.90
2018-11-02T05:53:30.211Z,11.90
2018-11-02T05:54:34.741Z,11.90
2018-11-02T05:55:39.289Z,11.90
2018-11-02T05:56:43.830Z,11.90
2018-11-02T05:57:48.373Z,11.90
2018-11-02T05:58:52.919Z,11.90
2018-11-02T05:59:57.460Z,11.90
2018-11-02T06:01:01.987Z,11.90
2018-11-02T06:02:06.562Z,11.90
2018-11-02T06:03:11.355Z,12.00
2018-11-02T06:04:15.966Z,12.00
2018-11-02T06:05:20.515Z,12.00
2018-11-02T06:06:25.044Z,12.00
2018-11-02T06:07:29.613Z,12.00
2018-11-02T06:08:34.086Z,12.00
2018-11-02T06:09:38.676Z,12.00
2018-11-02T06:10:44.141Z,11.90
2018-11-02T06:11:48.659Z,12.00
2018-11-02T06:12:53.210Z,12.00
2018-11-02T06:13:57.728Z,11.90
2018-11-02T06:15:02.301Z,12.00
2018-11-02T06:16:06.841Z,12.00
2018-11-02T06:17:11.426Z,12.00
2018-11-02T06:18:15.960Z,12.00
2018-11-02T06:19:20.546Z,12.00
2018-11-02T06:20:25.061Z,12.00
2018-11-02T06:21:29.661Z,12.10
2018-11-02T06:22:34.189Z,12.10
2018-11-02T06:23:38.702Z,12.10
2018-11-02T06:24:43.258Z,12.10
2018-11-02T06:25:47.841Z,12.10
2018-11-02T06:26:52.395Z,12.10
2018-11-02T06:27:56.916Z,12.20
2018-11-02T06:29:01.586Z,12.20
2018-11-02T06:30:07.394Z,12.20
2018-11-02T06:31:11.961Z,12.20
2018-11-02T06:32:16.526Z,12.20
2018-11-02T06:33:21.068Z,12.20
2018-11-02T06:34:25.592Z,12.20
2018-11-02T06:35:30.449Z,12.20
2018-11-02T06:36:35.076Z,12.20
2018-11-02T06:37:39.735Z,12.20
2018-11-02T06:38:44.354Z,12.10
2018-11-02T06:39:48.862Z,12.20
2018-11-02T06:40:53.321Z,12.10
2018-11-02T06:41:57.823Z,12.20
2018-11-02T06:43:02.354Z,12.20
2018-11-02T06:44:06.914Z,12.20
2018-11-02T06:45:12.005Z,12.20
2018-11-02T06:46:16.608Z,12.20
2018-11-02T06:47:22.052Z,12.20
2018-11-02T06:48:27.004Z,12.20
2018-11-02T06:49:31.602Z,12.20
2018-11-02T06:50:36.174Z,12.20
2018-11-02T06:51:40.724Z,12.30
2018-11-02T06:52:45.256Z,12.20
2018-11-02T06:53:49.837Z,12.20
2018-11-02T06:54:54.424Z,12.20
2018-11-02T06:55:58.939Z,12.20
2018-11-02T06:57:03.545Z,12.20
2018-11-02T06:58:08.010Z,12.20
2018-11-02T06:59:12.567Z,12.20
2018-11-02T07:00:17.208Z,12.10
2018-11-02T07:01:21.717Z,12.10
2018-11-02T07:02:26.249Z,12.10
2018-11-02T07:03:30.798Z,12.10
2018-11-02T07:04:35.347Z,12.10
2018-11-02T07:05:39.965Z,12.10
2018-11-02T07:06:44.727Z,12.20
2018-11-02T07:07:49.593Z,12.10
2018-11-02T07:08:54.509Z,12.10
2018-11-02T07:09:59.354Z,12.10
2018-11-02T07:11:04.213Z,12.10
2018-11-02T07:12:08.876Z,12.20
2018-11-02T07:13:13.652Z,12.20
2018-11-02T07:14:18.294Z,12.30
2018-11-02T07:15:27.794Z,12.30
2018-11-02T07:16:32.441Z,12.30
2018-11-02T07:17:38.056Z,12.40
2018-11-02T07:18:42.924Z,12.40
2018-11-02T07:19:47.537Z,12.40
2018-11-02T07:21:10.026Z,12.50
2018-11-02T07:22:14.573Z,12.50
2018-11-02T07:23:19.439Z,12.50
2018-11-02T07:24:24.060Z,12.50
2018-11-02T07:25:28.746Z,12.50
2018-11-02T07:27:36.075Z,12.50
2018-11-02T07:28:40.973Z,12.50
2018-11-02T07:29:45.600Z,12.60
2018-11-02T07:30:50.385Z,12.50
2018-11-02T07:31:55.239Z,12.50
2018-11-02T07:33:00.155Z,12.60
2018-11-02T07:34:05.438Z,12.50
2018-11-02T07:35:10.927Z,12.50
2018-11-02T07:36:15.776Z,12.50
2018-11-02T07:37:20.609Z,12.50
2018-11-02T07:38:25.201Z,12.60
2018-11-02T07:39:32.096Z,12.60
2018-11-02T07:40:36.695Z,12.60
2018-11-02T07:41:41.448Z,12.70
2018-11-02T07:42:46.097Z,12.70
2018-11-02T07:43:50.573Z,12.70
2018-11-02T07:44:55.113Z,12.70
2018-11-02T07:45:59.698Z,12.80
2018-11-02T07:47:04.406Z,12.80
2018-11-02T07:48:09.223Z,12.80
2018-11-02T07:49:13.980Z,12.90
2018-11-02T07:50:18.780Z,12.90
2018-11-02T07:51:23.571Z,12.90
2018-11-02T07:52:28.404Z,12.90
2018-11-02T07:53:33.208Z,13.00
2018-11-02T07:54:38.002Z,13.10
2018-11-02T07:55:42.934Z,13.10
2018-11-02T07:56:47.758Z,13.10
2018-11-02T07:57:52.483Z,13.20
2018-11-02T07:58:57.241Z,13.30
2018-11-02T08:00:02.024Z,13.40
2018-11-02T08:01:06.869Z,13.60
2018-11-02T08:02:11.641Z,13.70
2018-11-02T08:03:16.397Z,13.80
2018-11-02T08:04:21.194Z,13.90
2018-11-02T08:05:25.945Z,14.10
2018-11-02T08:06:30.779Z,14.20
2018-11-02T08:07:35.663Z,14.40
2018-11-02T08:08:41.299Z,14.60
2018-11-02T08:09:46.351Z,14.80
2018-11-02T08:10:51.437Z,14.90
2018-11-02T08:11:56.744Z,15.00
2018-11-02T08:13:02.295Z,15.10
2018-11-02T08:14:08.679Z,15.10
2018-11-02T08:15:13.810Z,15.00
2018-11-02T08:16:19.205Z,15.00
2018-11-02T08:17:23.921Z,15.00
2018-11-02T08:18:28.837Z,15.00
2018-11-02T08:19:33.561Z,15.10
2018-11-02T08:20:38.374Z,15.10
2018-11-02T08:21:43.155Z,15.20
2018-11-02T08:22:47.958Z,15.30
2018-11-02T08:23:52.764Z,15.30
2018-11-02T08:24:57.553Z,15.30
2018-11-02T08:26:02.373Z,15.30
2018-11-02T08:27:07.608Z,15.20
2018-11-02T08:28:12.398Z,15.20
2018-11-02T08:29:17.187Z,15.30
2018-11-02T08:30:21.970Z,15.30
2018-11-02T08:31:26.785Z,15.30
2018-11-02T08:32:31.596Z,15.40
2018-11-02T08:33:36.321Z,15.40
2018-11-02T08:34:41.156Z,15.60
2018-11-02T08:35:45.953Z,15.80
2018-11-02T08:36:50.784Z,16.10
2018-11-02T08:37:55.577Z,16.20
2018-11-02T08:39:00.437Z,16.30
2018-11-02T08:40:08.938Z,16.40
2018-11-02T08:41:13.745Z,16.40
2018-11-02T08:42:18.553Z,16.40
2018-11-02T08:43:23.360Z,16.50
2018-11-02T08:44:28.216Z,16.50
2018-11-02T08:45:33.003Z,16.50
2018-11-02T08:46:37.875Z,16.30
2018-11-02T08:47:42.610Z,16.20
2018-11-02T08:48:47.390Z,16.20
2018-11-02T08:49:52.203Z,16.10
2018-11-02T08:50:57.014Z,16.00
2018-11-02T08:52:01.819Z,16.00
2018-11-02T08:53:06.652Z,16.00
2018-11-02T08:54:11.424Z,16.00
2018-11-02T08:55:16.181Z,16.00
2018-11-02T08:56:21.029Z,16.00
2018-11-02T08:57:25.839Z,16.00
2018-11-02T08:58:30.743Z,16.00
2018-11-02T08:59:35.626Z,16.10
2018-11-02T09:00:40.230Z,16.20
2018-11-02T09:01:45.081Z,16.40
2018-11-02T09:02:49.868Z,16.80
2018-11-02T09:03:54.568Z,17.10
2018-11-02T09:04:59.404Z,17.30
2018-11-02T09:06:04.177Z,17.30
2018-11-02T09:07:09.017Z,17.20
2018-11-02T09:08:13.861Z,17.00
2018-11-02T09:09:18.574Z,16.80
2018-11-02T09:10:23.257Z,16.70
2018-11-02T09:11:27.886Z,16.60
2018-11-02T09:12:32.431Z,16.60
2018-11-02T09:13:36.973Z,16.50
2018-11-02T09:14:41.528Z,16.60
2018-11-02T09:15:46.074Z,16.60
2018-11-02T09:16:50.587Z,16.50
2018-11-02T09:17:55.106Z,16.60
2018-11-02T09:18:59.704Z,16.60
2018-11-02T09:20:04.729Z,16.60
2018-11-02T09:21:09.216Z,16.60
2018-11-02T09:22:13.766Z,16.60
2018-11-02T09:23:18.351Z,16.60
2018-11-02T09:24:22.946Z,16.60
2018-11-02T09:25:27.615Z,16.50
2018-11-02T09:26:32.100Z,16.60
2018-11-02T09:27:36.655Z,16.50
2018-11-02T09:28:41.164Z,16.50
2018-11-02T09:29:45.713Z,16.50
2018-11-02T09:30:50.237Z,16.70
2018-11-02T09:31:54.741Z,17.20
2018-11-02T09:32:59.180Z,17.80
2018-11-02T09:34:03.613Z,18.80
2018-11-02T09:35:08.225Z,19.50
2018-11-02T09:36:12.740Z,19.80
2018-11-02T09:37:17.281Z,19.80
2018-11-02T09:38:21.793Z,19.60
2018-11-02T09:39:26.256Z,19.60
2018-11-02T09:40:30.819Z,19.60
2018-11-02T09:41:35.286Z,19.40
2018-11-02T09:42:39.812Z,19.10
2018-11-02T09:43:44.372Z,18.90
2018-11-02T09:44:48.907Z,18.90
2018-11-02T09:45:53.391Z,19.00
2018-11-02T09:46:57.943Z,19.20
2018-11-02T09:48:02.481Z,19.30
2018-11-02T09:49:07.057Z,19.60
2018-11-02T09:50:12.219Z,20.20
2018-11-02T09:51:16.781Z,20.60
2018-11-02T09:52:21.352Z,20.90
2018-11-02T09:53:25.920Z,21.10
2018-11-02T09:54:30.460Z,21.10
2018-11-02T09:55:34.943Z,21.10
2018-11-02T09:56:39.502Z,21.10
2018-11-02T09:57:44.891Z,20.80
2018-11-02T09:58:49.410Z,20.60
2018-11-02T09:59:54.039Z,20.10
2018-11-02T10:00:58.610Z,19.70
2018-11-02T10:02:03.246Z,19.50
2018-11-02T10:03:07.753Z,19.30
2018-11-02T10:04:12.413Z,19.10
2018-11-02T10:05:17.022Z,19.00
2018-11-02T10:06:21.589Z,18.80
2018-11-02T10:07:26.153Z,18.70
2018-11-02T10:08:30.805Z,18.60
2018-11-02T10:09:35.328Z,18.50
2018-11-02T10:10:39.816Z,18.50
2018-11-02T10:11:44.392Z,18.60
2018-11-02T10:12:48.940Z,18.60
2018-11-02T10:13:53.518Z,18.60
2018-11-02T10:14:58.073Z,18.60
2018-11-02T10:16:02.650Z,18.70
2018-11-02T10:17:07.298Z,18.70
2018-11-02T10:18:11.874Z,18.70
2018-11-02T10:19:16.436Z,18.70
2018-11-02T10:20:20.989Z,18.60
2018-11-02T10:21:25.533Z,18.60
2018-11-02T10:22:30.109Z,18.60
2018-11-02T10:23:34.671Z,18.60
2018-11-02T10:24:39.165Z,18.70
2018-11-02T10:25:43.731Z,18.70
2018-11-02T10:26:48.228Z,18.70
2018-11-02T10:27:52.934Z,18.70
2018-11-02T10:28:57.589Z,18.60
2018-11-02T10:30:02.455Z,18.70
2018-11-02T10:31:07.308Z,18.80
2018-11-02T10:32:11.851Z,18.90
2018-11-02T10:33:16.384Z,18.80
2018-11-02T10:34:21.001Z,18.80
2018-11-02T10:35:25.686Z,18.80
2018-11-02T10:36:30.699Z,18.70
2018-11-02T10:37:35.317Z,18.70
2018-11-02T10:38:39.881Z,18.70
2018-11-02T10:39:44.952Z,18.60
2018-11-02T10:40:52.367Z,18.60
2018-11-02T10:41:59.594Z,18.60
2018-11-02T10:43:10.728Z,18.50
2018-11-02T10:44:17.526Z,18.50
2018-11-02T10:45:23.447Z,18.50
2018-11-02T10:46:28.156Z,18.50
2018-11-02T10:47:32.852Z,18.30
2018-11-02T10:48:37.411Z,18.30
2018-11-02T10:49:41.970Z,18.40
2018-11-02T10:50:46.529Z,18.40
2018-11-02T10:51:51.144Z,18.40
2018-11-02T10:52:55.719Z,18.40
2018-11-02T10:54:00.282Z,18.50
2018-11-02T10:55:04.973Z,18.50
2018-11-02T10:56:09.556Z,18.40
2018-11-02T10:57:14.045Z,18.50
2018-11-02T10:58:18.609Z,18.50
2018-11-02T10:59:23.218Z,18.60
2018-11-02T11:00:32.866Z,18.60
2018-11-02T11:01:42.589Z,18.60
2018-11-02T11:02:47.185Z,18.60
2018-11-02T11:03:51.789Z,18.70
2018-11-02T11:04:56.800Z,18.80
2018-11-02T11:06:01.349Z,18.90
2018-11-02T11:07:42.269Z,19.00
2018-11-02T11:08:46.796Z,18.90
2018-11-02T11:09:51.544Z,18.90
2018-11-02T11:10:56.141Z,19.10
2018-11-02T11:12:00.869Z,19.10
2018-11-02T11:13:05.751Z,19.10
2018-11-02T11:14:10.394Z,19.00
2018-11-02T11:15:14.925Z,19.00
2018-11-02T11:16:19.484Z,19.00
2018-11-02T11:17:24.132Z,18.90
2018-11-02T11:18:28.723Z,18.90
2018-11-02T11:19:33.251Z,18.80
2018-11-02T11:20:37.834Z,18.80
2018-11-02T11:21:43.038Z,18.80
2018-11-02T11:22:47.583Z,18.90
2018-11-02T11:23:52.196Z,19.00
2018-11-02T11:24:56.988Z,19.40
2018-11-02T11:26:01.482Z,19.70
2018-11-02T11:27:06.240Z,20.00
2018-11-02T11:28:10.903Z,20.30
2018-11-02T11:29:15.515Z,20.60
2018-11-02T11:30:20.797Z,20.40
2018-11-02T11:31:25.335Z,20.30
2018-11-02T11:32:29.835Z,20.40
2018-11-02T11:33:34.615Z,20.70
2018-11-02T11:34:39.223Z,21.00
2018-11-02T11:35:43.704Z,21.20
2018-11-02T11:36:48.218Z,21.50
2018-11-02T11:37:52.734Z,22.30
2018-11-02T11:38:57.297Z,23.10
2018-11-02T11:40:01.782Z,23.80
2018-11-02T11:41:06.380Z,24.40
2018-11-02T11:42:10.943Z,24.40
2018-11-02T11:43:15.516Z,24.40
2018-11-02T11:44:20.121Z,24.80
2018-11-02T11:45:24.651Z,25.00
2018-11-02T11:46:29.223Z,25.10
2018-11-02T11:47:33.843Z,24.90
2018-11-02T11:48:38.494Z,24.80
2018-11-02T11:49:43.079Z,25.00
2018-11-02T11:50:47.641Z,25.20
2018-11-02T11:51:52.244Z,25.00
2018-11-02T11:52:56.804Z,24.70
2018-11-02T11:54:01.523Z,24.40
2018-11-02T11:55:07.685Z,24.70
2018-11-02T11:56:37.285Z,25.50
2018-11-02T11:57:42.774Z,26.20
2018-11-02T11:58:47.388Z,26.50
2018-11-02T11:59:52.084Z,26.70
2018-11-02T12:00:56.624Z,26.90
2018-11-02T12:02:01.431Z,27.30
2018-11-02T12:03:05.927Z,27.40
2018-11-02T12:04:10.491Z,27.30
2018-11-02T12:05:16.322Z,26.80
2018-11-02T12:06:20.828Z,26.30
2018-11-02T12:07:25.327Z,25.90
2018-11-02T12:08:29.865Z,25.60
2018-11-02T12:09:34.466Z,25.20
2018-11-02T12:10:39.066Z,24.40
2018-11-02T12:11:43.653Z,23.80
2018-11-02T12:12:48.335Z,23.20
2018-11-02T12:13:52.803Z,22.80
2018-11-02T12:14:57.482Z,22.60
2018-11-02T12:16:02.015Z,22.40
2018-11-02T12:17:06.694Z,22.20
2018-11-02T12:18:11.286Z,22.00
2018-11-02T12:19:15.923Z,21.80
2018-11-02T12:20:22.944Z,21.60
2018-11-02T12:21:27.543Z,21.50
2018-11-02T12:22:32.109Z,21.30
2018-11-02T12:23:36.686Z,21.10
2018-11-02T12:24:41.188Z,21.00
2018-11-02T12:25:45.740Z,20.90
2018-11-02T12:26:50.308Z,20.90
2018-11-02T12:27:54.821Z,20.80
2018-11-02T12:28:59.386Z,21.00
2018-11-02T12:30:04.063Z,21.00
2018-11-02T12:31:08.592Z,21.30
2018-11-02T12:32:13.073Z,21.30
2018-11-02T12:33:17.569Z,21.20
2018-11-02T12:34:22.100Z,21.00
2018-11-02T12:35:26.891Z,20.90
2018-11-02T12:36:31.571Z,20.90
2018-11-02T12:37:36.326Z,20.80
2018-11-02T12:38:40.854Z,20.70
2018-11-02T12:39:45.409Z,20.60
2018-11-02T12:40:49.965Z,20.50
2018-11-02T12:41:54.489Z,20.30
2018-11-02T12:42:59.070Z,20.30
2018-11-02T12:44:03.609Z,20.40
2018-11-02T12:45:09.801Z,20.50
2018-11-02T12:46:14.402Z,20.40
2018-11-02T12:47:18.961Z,20.40
2018-11-02T12:48:23.541Z,20.30
2018-11-02T12:49:28.255Z,20.30
2018-11-02T12:50:32.606Z,20.30
2018-11-02T12:51:37.137Z,20.30
2018-11-02T12:52:41.915Z,20.30
2018-11-02T12:53:46.384Z,20.20
2018-11-02T12:54:50.869Z,20.10
2018-11-02T12:55:55.328Z,20.00
2018-11-02T12:56:59.872Z,19.90
2018-11-02T12:58:04.449Z,19.90
2018-11-02T12:59:09.315Z,19.90
2018-11-02T13:00:16.501Z,20.00
2018-11-02T13:01:21.037Z,20.10
2018-11-02T13:02:25.704Z,20.20
2018-11-02T13:03:30.334Z,20.60
2018-11-02T13:04:34.850Z,21.10
2018-11-02T13:05:39.468Z,21.30
2018-11-02T13:06:43.967Z,21.60
2018-11-02T13:07:48.502Z,22.00
2018-11-02T13:08:52.964Z,22.00
2018-11-02T13:10:00.560Z,21.70
2018-11-02T13:11:06.017Z,21.30
2018-11-02T13:12:10.583Z,21.10
2018-11-02T13:13:15.142Z,20.90
2018-11-02T13:14:19.674Z,20.70
2018-11-02T13:15:24.724Z,20.40
2018-11-02T13:16:29.315Z,20.30
2018-11-02T13:17:34.007Z,20.20
2018-11-02T13:18:38.495Z,20.10
2018-11-02T13:19:43.059Z,20.00
2018-11-02T13:20:47.638Z,19.90
2018-11-02T13:21:52.299Z,19.80
2018-11-02T13:22:56.750Z,19.80
2018-11-02T13:24:01.314Z,19.70
2018-11-02T13:25:07.094Z,19.60
2018-11-02T13:26:11.753Z,19.60
2018-11-02T13:27:16.105Z,19.50
2018-11-02T13:28:21.043Z,19.40
2018-11-02T13:29:25.635Z,19.40
2018-11-02T13:30:30.345Z,19.30
2018-11-02T13:31:34.787Z,19.20
2018-11-02T13:32:39.378Z,19.20
2018-11-02T13:33:43.843Z,19.20
2018-11-02T13:34:48.311Z,19.10
2018-11-02T13:35:52.925Z,19.10
2018-11-02T13:36:57.529Z,19.00
2018-11-02T13:38:02.090Z,19.00
2018-11-02T13:39:09.410Z,18.90
2018-11-02T13:40:16.126Z,18.80
2018-11-02T13:41:20.677Z,18.80
2018-11-02T13:42:25.213Z,18.80
2018-11-02T13:43:29.821Z,18.70
2018-11-02T13:44:34.318Z,18.70
2018-11-02T13:45:38.792Z,18.70
2018-11-02T13:46:43.286Z,18.70
2018-11-02T13:47:47.844Z,18.70
2018-11-02T13:48:52.427Z,18.70
2018-11-02T13:49:56.974Z,18.70
2018-11-02T13:51:01.542Z,18.60
2018-11-02T13:52:07.111Z,18.60
2018-11-02T13:53:11.631Z,18.50
2018-11-02T13:54:16.177Z,18.50
2018-11-02T13:55:20.706Z,18.40
2018-11-02T13:56:25.693Z,18.40